Anchor Point, AK

12:34 PM AKDT on July 28, 2016 (GMT -0800)
Wilderness Greenhouse | | Change Station

Elev 335 ft 59.72 °N, 151.72 °W | Updated 44 seconds ago

Mostly Cloudy
Mostly Cloudy
60.4 °F
Feels Like 60.4 °F
N
3.2
Wind Variable Wind from West

Today
High -- | Low -- °F
--% Chance of Precip.
Yesterday
High -- | Low -- °F
Precip. -- in
Pressure 29.91 in
Visibility 10.0 miles
Clouds Few 1000 ft
Scattered Clouds 6000 ft
Mostly Cloudy 12000 ft
Dew Point 57 °F
Humidity 89%
Rainfall 0.07 in
Snow Depth Not available.
5:41 AM 10:43 PM
Waning Crescent, 29% visible
METAR PAHO 281953Z 22007KT 10SM FEW010 SCT060 BKN120 14/13 A2991 RMK AO2 SLP128 T01440133
Pressure 29.91 in
Visibility 10.0 miles
Clouds Few 1000 ft
Scattered Clouds 6000 ft
Mostly Cloudy 12000 ft
Dew Point 57 °F
Humidity 89%
Rainfall 0.07 in
Snow Depth Not available.
5:41 AM 10:43 PM
Waning Crescent, 29% visible
METAR PAHO 281953Z 22007KT 10SM FEW010 SCT060 BKN120 14/13 A2991 RMK AO2 SLP128 T01440133

10-Day Weather Forecast

Almanac

Astronomy

Jul. 28, 2016 Rise Set
Actual Time
Civil Twilight
Nautical Twilight
Astronomical Twilight
Moon
Length of Visible Light
Length of Day
Tomorrow will be .
, % of the Moon is Illuminated

Today's Extremes

State Highs State Lows

Community

WunderPhotos

Upload Photos

1,928,204 photos uploaded!

WunderBlog® & News

Nearby

Air Quality

  Air Quality AQ Index Pollutant
Not available.

Snow Depth

Station Depth Elevation

Earthquake Activity

City Distance Mag. Time & Date
Minimum magnitude displayed is 2.5.

Coastal Water Temperatures

Place Temperature

Stations

Nearby Weather Stations

Station Location Temp. Windchill Dew Point Humidity Wind Precip. Elev Updated Type
                   

Watches & Warnings

There are currently no watches in effect.